Time;durP1;ratioP1;P1;durP2;ratioP2;P2;SDS_P1;SDS_P2;PMS_P1;PMS_P2;Temp;Humidity;BMP_temperature;BMP_pressure;BME280_temperature;BME280_humidity;BME280_pressure;Samples;Min_cycle;Max_cycle;Signal;HPM_P1;HPM_P2
2022/05/25 00:02:22;;;;;;;;;;;10.90;99.90;;;;;;5080108;28;19921;-54
2022/05/25 00:04:48;;;;;;;;;;;10.90;99.90;;;;;;5065860;28;20359;-54
2022/05/25 00:07:14;;;;;;;;;;;11.00;99.90;;;;;;5089030;28;19921;-55
2022/05/25 00:09:39;;;;;;;;;;;11.00;99.90;;;;;;5090382;28;19928;-54
2022/05/25 00:12:06;;;;;;;;;;;11.00;99.90;;;;;;5082694;28;19928;-55
2022/05/25 00:14:32;;;;;;;;;;;11.00;99.90;;;;;;5080779;28;19924;-48
2022/05/25 00:16:58;;;;;;;;;;;11.00;99.90;;;;;;5084155;28;19932;-54
2022/05/25 00:22:07;;;;;;;;;;;11.00;99.90;;;;;;5083709;28;20002;-54
2022/05/25 00:24:33;;;;;;;;;;;10.90;99.90;;;;;;5066114;28;19992;-49
2022/05/25 00:26:59;;;;;;;;;;;10.90;99.90;;;;;;5079377;28;19955;-54
2022/05/25 00:29:24;;;;;;;;;;;10.90;99.90;;;;;;5085164;28;20209;-54
2022/05/25 00:31:50;;;;;;;;;;;10.90;99.90;;;;;;5078714;28;19961;-54
2022/05/25 00:34:15;;;;;;;;;;;10.90;99.90;;;;;;5086131;28;19932;-54
2022/05/25 00:36:41;;;;;;;;;;;10.90;99.90;;;;;;5105024;28;20384;-45
2022/05/25 00:39:06;;;;;;;;;;;10.80;99.90;;;;;;5089193;28;19924;-47
2022/05/25 00:41:32;;;;;;;;;;;10.80;99.90;;;;;;5106600;28;20006;-53
2022/05/25 00:43:58;;;;;;;;;;;10.70;99.90;;;;;;5102534;28;19935;-54
2022/05/25 00:46:24;;;;;;;;;;;10.70;99.90;;;;;;5108010;28;19927;-53
2022/05/25 00:48:51;;;;;;;;;;;10.70;99.90;;;;;;5100838;28;20269;-54
2022/05/25 00:51:21;;;;;;;;;;;10.60;99.90;;;;;;5103851;28;20384;-53
2022/05/25 00:53:58;;;;;;;;;;;10.60;99.90;;;;;;5086706;28;19930;-51
2022/05/25 00:56:25;;;;;;;;;;;10.50;99.90;;;;;;5085543;28;20359;-50
2022/05/25 00:58:57;;;;;;;;;;;10.50;99.90;;;;;;5086777;28;19927;-53
2022/05/25 01:01:24;;;;;;;;;;;10.50;99.90;;;;;;5101939;28;20263;-54
2022/05/25 01:03:49;;;;;;;;;;;10.40;99.90;;;;;;5099278;28;20487;-54
2022/05/25 01:06:22;;;;;;;;;;;10.40;99.90;;;;;;5092104;28;19931;-54
2022/05/25 01:08:53;;;;;;;;;;;10.40;99.90;;;;;;5102593;28;20606;-54
2022/05/25 01:11:19;;;;;;;;;;;10.40;99.90;;;;;;5105365;28;19944;-54
2022/05/25 01:14:03;;;;;;;;;;;10.30;99.90;;;;;;5102438;28;20344;-54
2022/05/25 01:16:47;;;;;;;;;;;10.30;99.90;;;;;;5100828;28;19924;-53
2022/05/25 01:19:15;;;;;;;;;;;10.30;99.90;;;;;;5104011;28;20419;-54
2022/05/25 01:22:01;;;;;;;;;;;10.20;99.90;;;;;;5082811;28;19957;-50
2022/05/25 01:24:30;;;;;;;;;;;10.20;99.90;;;;;;5099407;28;20340;-54
2022/05/25 01:27:05;;;;;;;;;;;10.10;99.90;;;;;;5077070;28;20083;-54
2022/05/25 01:29:34;;;;;;;;;;;10.10;99.90;;;;;;5097636;28;20021;-54
2022/05/25 01:32:02;;;;;;;;;;;10.10;99.90;;;;;;5104137;28;20368;-53
2022/05/25 01:34:51;;;;;;;;;;;10.00;99.90;;;;;;5103723;28;19920;-54
2022/05/25 01:37:22;;;;;;;;;;;10.00;99.90;;;;;;5080743;28;20273;-54
2022/05/25 01:39:52;;;;;;;;;;;10.00;99.90;;;;;;5065779;28;20014;-54
2022/05/25 01:42:25;;;;;;;;;;;9.90;99.90;;;;;;5060203;28;19928;-52
2022/05/25 01:44:57;;;;;;;;;;;9.90;99.90;;;;;;5080813;28;19920;-50
2022/05/25 01:47:24;;;;;;;;;;;9.90;99.90;;;;;;5086619;28;19928;-51
2022/05/25 01:49:53;;;;;;;;;;;9.90;99.90;;;;;;5084455;28;19943;-54
2022/05/25 01:52:20;;;;;;;;;;;9.90;99.90;;;;;;5084513;28;20094;-54
2022/05/25 01:54:54;;;;;;;;;;;9.80;99.90;;;;;;5082577;28;19961;-54
2022/05/25 01:57:25;;;;;;;;;;;9.80;99.90;;;;;;5076470;28;19924;-55
2022/05/25 01:59:51;;;;;;;;;;;9.80;99.90;;;;;;5069855;28;19925;-52
2022/05/25 02:05:03;;;;;;;;;;;9.80;99.90;;;;;;5082180;28;20002;-54
2022/05/25 02:07:43;;;;;;;;;;;9.80;99.90;;;;;;5081676;28;19924;-54
2022/05/25 02:10:27;;;;;;;;;;;9.80;99.90;;;;;;5082666;28;19928;-47
2022/05/25 02:13:08;;;;;;;;;;;9.80;99.90;;;;;;5087366;28;20276;-54
2022/05/25 02:15:37;;;;;;;;;;;9.80;99.90;;;;;;5084079;28;20019;-55
2022/05/25 02:18:09;;;;;;;;;;;9.80;99.90;;;;;;5081797;28;19928;-52
2022/05/25 02:20:34;;;;;;;;;;;9.80;99.90;;;;;;5085223;28;19942;-54
2022/05/25 02:23:07;;;;;;;;;;;9.80;99.90;;;;;;5082874;28;20326;-52
2022/05/25 02:25:45;;;;;;;;;;;9.70;99.90;;;;;;5082734;28;20362;-53
2022/05/25 02:28:33;;;;;;;;;;;9.70;99.90;;;;;;5084064;28;20007;-54
2022/05/25 02:31:01;;;;;;;;;;;9.70;99.90;;;;;;5080023;28;19920;-53
2022/05/25 02:33:30;;;;;;;;;;;9.70;99.90;;;;;;5079790;28;21733;-54
2022/05/25 02:35:57;;;;;;;;;;;9.60;99.90;;;;;;5077194;28;19942;-54
2022/05/25 02:38:23;;;;;;;;;;;9.50;99.90;;;;;;5082514;28;20297;-54
2022/05/25 02:40:48;;;;;;;;;;;9.50;99.90;;;;;;5077588;28;19983;-53
2022/05/25 02:43:14;;;;;;;;;;;9.50;99.90;;;;;;5079694;28;19928;-54
2022/05/25 02:45:39;;;;;;;;;;;9.50;99.90;;;;;;5058080;28;19959;-54
2022/05/25 02:48:05;;;;;;;;;;;9.40;99.90;;;;;;5067138;28;19981;-54
2022/05/25 02:50:31;;;;;;;;;;;9.40;99.90;;;;;;5067865;28;19927;-50
2022/05/25 02:52:57;;;;;;;;;;;9.40;99.90;;;;;;5058948;28;19928;-54
2022/05/25 02:55:23;;;;;;;;;;;9.40;99.90;;;;;;5076071;28;20471;-54
2022/05/25 02:57:49;;;;;;;;;;;9.40;99.90;;;;;;5064325;28;19931;-54
2022/05/25 03:00:15;;;;;;;;;;;9.40;99.90;;;;;;5079502;28;19932;-53
2022/05/25 03:02:40;;;;;;;;;;;9.30;99.90;;;;;;5060619;28;19940;-53
2022/05/25 03:05:07;;;;;;;;;;;9.30;99.90;;;;;;5083765;28;19924;-54
2022/05/25 03:07:33;;;;;;;;;;;9.30;99.90;;;;;;5079793;28;19928;-54
2022/05/25 03:09:58;;;;;;;;;;;9.20;99.90;;;;;;5079547;28;20065;-53
2022/05/25 03:12:24;;;;;;;;;;;9.20;99.90;;;;;;5080944;28;19924;-53
2022/05/25 03:14:49;;;;;;;;;;;9.20;99.90;;;;;;5081952;28;19988;-49
2022/05/25 03:17:15;;;;;;;;;;;9.20;99.90;;;;;;5060065;28;19943;-51
2022/05/25 03:19:41;;;;;;;;;;;9.20;99.90;;;;;;5077874;28;19963;-47
2022/05/25 03:22:07;;;;;;;;;;;9.20;99.90;;;;;;5084857;28;19973;-54
2022/05/25 03:24:33;;;;;;;;;;;9.10;99.90;;;;;;5079423;28;19924;-45
2022/05/25 03:26:58;;;;;;;;;;;9.10;99.90;;;;;;5080625;28;20403;-53
2022/05/25 03:29:25;;;;;;;;;;;9.10;99.90;;;;;;5077521;28;20446;-54
2022/05/25 03:31:50;;;;;;;;;;;9.10;99.90;;;;;;5078818;28;19928;-54
2022/05/25 03:34:17;;;;;;;;;;;9.10;99.90;;;;;;5084646;28;19985;-54
2022/05/25 03:36:43;;;;;;;;;;;9.10;99.90;;;;;;5104760;28;20455;-54
2022/05/25 03:39:09;;;;;;;;;;;9.10;99.90;;;;;;5092587;28;19928;-52
2022/05/25 03:41:34;;;;;;;;;;;9.00;99.90;;;;;;5102132;28;19945;-54
2022/05/25 03:44:00;;;;;;;;;;;9.00;99.90;;;;;;5105397;28;19955;-54
2022/05/25 03:46:25;;;;;;;;;;;9.00;99.90;;;;;;5099582;28;20023;-53
2022/05/25 03:48:51;;;;;;;;;;;9.00;99.90;;;;;;5108503;28;19931;-53
2022/05/25 03:51:16;;;;;;;;;;;9.00;99.90;;;;;;5100418;28;20390;-53
2022/05/25 03:53:42;;;;;;;;;;;9.00;99.90;;;;;;5096264;28;19920;-54
2022/05/25 03:56:08;;;;;;;;;;;9.00;99.90;;;;;;5091804;28;20438;-53
2022/05/25 03:58:33;;;;;;;;;;;9.00;99.90;;;;;;5100222;28;20003;-52
2022/05/25 04:00:59;;;;;;;;;;;9.00;99.90;;;;;;5098330;28;19935;-53
2022/05/25 04:03:24;;;;;;;;;;;9.00;99.90;;;;;;5083359;28;20031;-49
2022/05/25 04:05:50;;;;;;;;;;;9.00;99.90;;;;;;5085416;28;19926;-48
2022/05/25 04:08:15;;;;;;;;;;;9.00;99.90;;;;;;5100206;28;20281;-53
2022/05/25 04:10:41;;;;;;;;;;;9.00;99.90;;;;;;5097268;28;19928;-54
2022/05/25 04:13:06;;;;;;;;;;;9.10;99.90;;;;;;5103639;28;19971;-52
2022/05/25 04:15:33;;;;;;;;;;;9.10;99.90;;;;;;5103840;28;19919;-55
2022/05/25 04:17:58;;;;;;;;;;;9.20;99.90;;;;;;5100097;28;19928;-51
2022/05/25 04:20:25;;;;;;;;;;;9.20;99.90;;;;;;5092000;28;20018;-45
2022/05/25 04:22:51;;;;;;;;;;;9.30;99.90;;;;;;5095792;28;19920;-54
2022/05/25 04:25:18;;;;;;;;;;;9.30;99.90;;;;;;5104080;28;19927;-54
2022/05/25 04:27:44;;;;;;;;;;;9.40;99.90;;;;;;5099705;28;19999;-54
2022/05/25 04:30:10;;;;;;;;;;;9.40;99.90;;;;;;5080816;28;19971;-53
2022/05/25 04:32:36;;;;;;;;;;;9.50;99.90;;;;;;5087600;28;19920;-53
2022/05/25 04:35:02;;;;;;;;;;;9.50;99.90;;;;;;5106121;28;19954;-48
2022/05/25 04:40:12;;;;;;;;;;;9.60;99.90;;;;;;5077023;28;19920;-51
2022/05/25 04:42:38;;;;;;;;;;;9.60;99.90;;;;;;5071685;28;20010;-48
2022/05/25 04:45:04;;;;;;;;;;;9.70;99.90;;;;;;5092466;28;19924;-48
2022/05/25 04:47:31;;;;;;;;;;;9.70;99.90;;;;;;5090638;28;19920;-54
2022/05/25 04:49:57;;;;;;;;;;;9.80;99.90;;;;;;5096672;28;19973;-54
2022/05/25 04:52:23;;;;;;;;;;;9.90;99.90;;;;;;5087235;28;19920;-54
2022/05/25 04:54:48;;;;;;;;;;;9.90;99.90;;;;;;5110547;28;19934;-55
2022/05/25 04:57:20;;;;;;;;;;;9.90;99.90;;;;;;5098899;28;19966;-52
2022/05/25 04:59:46;;;;;;;;;;;10.00;99.90;;;;;;5103499;28;19928;-54
2022/05/25 05:02:12;;;;;;;;;;;10.10;99.90;;;;;;5101488;28;19986;-53
2022/05/25 05:04:38;;;;;;;;;;;10.20;99.90;;;;;;5100269;28;19971;-53
2022/05/25 05:07:04;;;;;;;;;;;10.20;99.90;;;;;;5086545;28;20322;-53
2022/05/25 05:09:36;;;;;;;;;;;10.30;99.90;;;;;;5111503;28;19928;-54
2022/05/25 05:12:02;;;;;;;;;;;10.40;99.90;;;;;;5103852;28;19956;-54
2022/05/25 05:14:28;;;;;;;;;;;10.40;99.90;;;;;;5087619;28;20387;-53
2022/05/25 05:16:57;;;;;;;;;;;10.50;99.90;;;;;;5083991;28;20296;-54
2022/05/25 05:19:24;;;;;;;;;;;10.60;99.90;;;;;;5102203;28;19937;-53
2022/05/25 05:21:49;;;;;;;;;;;10.70;99.90;;;;;;5105013;28;20012;-52
2022/05/25 05:24:15;;;;;;;;;;;10.80;99.90;;;;;;5101556;28;19955;-54
2022/05/25 05:26:40;;;;;;;;;;;10.90;99.90;;;;;;5105799;28;19927;-54
2022/05/25 05:29:06;;;;;;;;;;;11.00;99.90;;;;;;5104707;28;20402;-49
2022/05/25 05:31:32;;;;;;;;;;;11.10;99.90;;;;;;5100060;28;20312;-53
2022/05/25 05:33:57;;;;;;;;;;;11.10;99.90;;;;;;5106523;28;19919;-56
2022/05/25 05:36:24;;;;;;;;;;;11.20;99.90;;;;;;5111140;28;20374;-54
2022/05/25 05:38:53;;;;;;;;;;;11.30;99.90;;;;;;5098735;28;19920;-50
2022/05/25 05:41:20;;;;;;;;;;;11.30;99.90;;;;;;5104549;28;19924;-54
2022/05/25 05:43:45;;;;;;;;;;;11.40;99.90;;;;;;5105963;28;20559;-55
2022/05/25 05:46:11;;;;;;;;;;;11.50;99.90;;;;;;5069724;28;19962;-53
2022/05/25 05:48:37;;;;;;;;;;;11.50;99.90;;;;;;5104123;28;20068;-54
2022/05/25 05:51:04;;;;;;;;;;;11.60;99.90;;;;;;5109433;28;20010;-54
2022/05/25 05:53:30;;;;;;;;;;;11.60;99.90;;;;;;5104173;28;19928;-50
2022/05/25 05:55:56;;;;;;;;;;;11.70;99.90;;;;;;5099103;28;19967;-54
2022/05/25 05:58:22;;;;;;;;;;;11.80;99.90;;;;;;5080867;28;19968;-51
2022/05/25 06:00:47;;;;;;;;;;;11.80;99.90;;;;;;5096563;28;20376;-54
2022/05/25 06:03:14;;;;;;;;;;;11.90;99.90;;;;;;5102336;28;20036;-54
2022/05/25 06:05:40;;;;;;;;;;;12.00;99.90;;;;;;5099571;28;19992;-50
2022/05/25 06:09:13;;;;;;;;;;;12.10;99.90;;;;;;5097055;27;19928;-53
2022/05/25 06:11:41;;;;;;;;;;;12.20;99.90;;;;;;5090302;28;19928;-53
2022/05/25 06:14:07;;;;;;;;;;;12.20;99.90;;;;;;5078816;28;19920;-51
2022/05/25 06:19:25;;;;;;;;;;;12.40;99.90;;;;;;5085275;28;19920;-54
2022/05/25 06:21:58;;;;;;;;;;;12.50;99.90;;;;;;5082246;28;19986;-50
2022/05/25 06:24:23;;;;;;;;;;;12.60;99.90;;;;;;5086672;28;19926;-50
2022/05/25 06:26:49;;;;;;;;;;;12.70;99.90;;;;;;5085674;28;19920;-56
2022/05/25 06:29:17;;;;;;;;;;;12.80;99.90;;;;;;5086933;28;19956;-50
2022/05/25 06:31:43;;;;;;;;;;;12.80;99.90;;;;;;5080048;28;20241;-52
2022/05/25 06:34:09;;;;;;;;;;;12.90;99.90;;;;;;5088001;28;19920;-56
2022/05/25 06:36:34;;;;;;;;;;;12.90;99.90;;;;;;5088637;28;20340;-50
2022/05/25 06:39:00;;;;;;;;;;;12.90;99.90;;;;;;5089978;28;20380;-56
2022/05/25 06:41:26;;;;;;;;;;;13.00;99.90;;;;;;5087825;28;19946;-52
2022/05/25 06:43:52;;;;;;;;;;;13.10;99.90;;;;;;5087664;28;20373;-55
2022/05/25 06:46:19;;;;;;;;;;;13.20;99.90;;;;;;5079100;28;19938;-54
2022/05/25 06:48:45;;;;;;;;;;;13.20;99.90;;;;;;5097052;28;19956;-54
2022/05/25 06:51:12;;;;;;;;;;;13.30;99.90;;;;;;5079704;28;19920;-53
2022/05/25 06:53:38;;;;;;;;;;;13.30;99.90;;;;;;5072101;28;20305;-54
2022/05/25 06:56:04;;;;;;;;;;;13.40;99.90;;;;;;5052090;28;19925;-55
2022/05/25 06:58:29;;;;;;;;;;;13.40;99.90;;;;;;5047650;28;19943;-57
2022/05/25 07:00:55;;;;;;;;;;;13.40;99.90;;;;;;5045503;28;19929;-54
2022/05/25 07:03:21;;;;;;;;;;;13.50;99.90;;;;;;5044620;28;19922;-55
2022/05/25 07:05:46;;;;;;;;;;;13.60;99.90;;;;;;5038924;28;19926;-55
2022/05/25 07:08:12;;;;;;;;;;;13.60;99.90;;;;;;5051266;28;20294;-55
2022/05/25 07:10:38;;;;;;;;;;;13.70;99.90;;;;;;5047227;28;20374;-54
2022/05/25 07:13:03;;;;;;;;;;;13.70;99.90;;;;;;5042808;28;19928;-53
2022/05/25 07:15:29;;;;;;;;;;;13.70;99.90;;;;;;5059617;28;19954;-51
2022/05/25 07:17:54;;;;;;;;;;;13.80;99.90;;;;;;5055663;28;20024;-50
2022/05/25 07:20:20;;;;;;;;;;;13.90;99.90;;;;;;5026643;28;19925;-51
2022/05/25 07:22:45;;;;;;;;;;;14.00;99.90;;;;;;5043548;28;19921;-53
2022/05/25 07:25:11;;;;;;;;;;;14.20;99.90;;;;;;5044315;28;22666;-51
2022/05/25 07:27:37;;;;;;;;;;;14.30;99.90;;;;;;5038056;28;19925;-52
2022/05/25 07:30:03;;;;;;;;;;;14.40;99.90;;;;;;5048040;28;20035;-55
2022/05/25 07:32:28;;;;;;;;;;;14.60;99.90;;;;;;5045827;28;19967;-54
2022/05/25 07:34:58;;;;;;;;;;;14.70;99.90;;;;;;5047903;28;20284;-53
2022/05/25 07:37:24;;;;;;;;;;;14.80;99.90;;;;;;5050428;28;19932;-55
2022/05/25 07:39:53;;;;;;;;;;;14.90;99.90;;;;;;5046342;28;20390;-51
2022/05/25 07:42:19;;;;;;;;;;;14.90;99.90;;;;;;5047973;28;20370;-55
2022/05/25 07:44:48;;;;;;;;;;;14.90;99.90;;;;;;5045282;28;19991;-56
2022/05/25 07:47:14;;;;;;;;;;;14.90;99.90;;;;;;5043224;28;19936;-56
2022/05/25 07:49:40;;;;;;;;;;;15.10;99.90;;;;;;5046755;28;19933;-55
2022/05/25 07:52:06;;;;;;;;;;;15.20;99.90;;;;;;5052441;28;20282;-54
2022/05/25 07:54:31;;;;;;;;;;;15.40;99.90;;;;;;5044613;28;19928;-54
2022/05/25 07:56:59;;;;;;;;;;;15.50;99.90;;;;;;5036702;28;19925;-53
2022/05/25 07:59:24;;;;;;;;;;;15.60;99.90;;;;;;5043487;28;20334;-50
2022/05/25 08:07:26;;;;;;;;;;;16.00;99.90;;;;;;5038028;28;20014;-56
2022/05/25 08:09:54;;;;;;;;;;;16.20;99.90;;;;;;5044728;28;20702;-52
2022/05/25 08:12:20;;;;;;;;;;;16.30;99.90;;;;;;5047261;28;19921;-56
2022/05/25 08:14:46;;;;;;;;;;;16.40;99.90;;;;;;5044450;28;19925;-55
2022/05/25 08:17:12;;;;;;;;;;;16.60;99.90;;;;;;5049243;28;20304;-56
2022/05/25 08:19:38;;;;;;;;;;;16.50;99.90;;;;;;5046351;28;19920;-48
2022/05/25 08:22:04;;;;;;;;;;;16.40;99.90;;;;;;5050392;28;19932;-55
2022/05/25 08:24:31;;;;;;;;;;;16.40;99.90;;;;;;5043545;28;19925;-56
2022/05/25 08:26:56;;;;;;;;;;;16.40;99.90;;;;;;5047347;28;20017;-54
2022/05/25 08:29:25;;;;;;;;;;;16.30;99.50;;;;;;5025638;28;19970;-52
2022/05/25 08:31:55;;;;;;;;;;;16.30;99.90;;;;;;5039338;28;19921;-56
2022/05/25 08:34:21;;;;;;;;;;;16.40;99.50;;;;;;5041092;28;19946;-53
2022/05/25 08:36:47;;;;;;;;;;;16.40;98.30;;;;;;5044939;28;19928;-55
2022/05/25 08:39:13;;;;;;;;;;;16.50;97.90;;;;;;5047439;28;20298;-55
2022/05/25 08:41:39;;;;;;;;;;;16.60;98.30;;;;;;5037333;28;19943;-56
2022/05/25 08:44:05;;;;;;;;;;;16.70;98.30;;;;;;5037247;28;19921;-55
2022/05/25 08:46:31;;;;;;;;;;;16.70;97.10;;;;;;5046400;28;20453;-56
2022/05/25 08:49:02;;;;;;;;;;;16.70;96.70;;;;;;5048576;28;20384;-56
2022/05/25 08:51:28;;;;;;;;;;;16.80;96.00;;;;;;5051003;28;19927;-55
2022/05/25 08:53:56;;;;;;;;;;;16.80;96.10;;;;;;5037054;28;19925;-54
2022/05/25 08:56:24;;;;;;;;;;;16.90;93.30;;;;;;5044429;28;20358;-53
2022/05/25 08:58:58;;;;;;;;;;;17.00;93.60;;;;;;5047246;28;19967;-55
2022/05/25 09:01:33;;;;;;;;;;;17.10;90.90;;;;;;5040567;28;20012;-56
2022/05/25 09:04:07;;;;;;;;;;;17.20;90.30;;;;;;5042193;28;20003;-54
2022/05/25 09:06:41;;;;;;;;;;;17.20;88.90;;;;;;5040784;28;20074;-58
2022/05/25 09:09:29;;;;;;;;;;;17.30;90.10;;;;;;5016837;28;20016;-55
2022/05/25 09:11:57;;;;;;;;;;;17.40;91.00;;;;;;5022028;28;20302;-56
2022/05/25 09:14:22;;;;;;;;;;;17.40;88.20;;;;;;5045780;28;20649;-56
2022/05/25 09:16:49;;;;;;;;;;;17.30;87.20;;;;;;5049321;28;19920;-56
2022/05/25 09:19:24;;;;;;;;;;;17.40;85.60;;;;;;5024695;28;20373;-56
2022/05/25 09:21:57;;;;;;;;;;;17.50;84.60;;;;;;5046174;28;20011;-53
2022/05/25 09:24:24;;;;;;;;;;;17.60;80.70;;;;;;5033497;28;19929;-58
2022/05/25 09:26:49;;;;;;;;;;;17.70;83.00;;;;;;5043145;28;20272;-55
2022/05/25 09:29:15;;;;;;;;;;;17.90;80.00;;;;;;5049375;28;20385;-54
2022/05/25 09:31:47;;;;;;;;;;;18.10;82.90;;;;;;5030934;28;19924;-54
2022/05/25 09:34:16;;;;;;;;;;;18.20;80.80;;;;;;5048341;28;19920;-57
2022/05/25 09:36:45;;;;;;;;;;;18.40;83.10;;;;;;5026411;28;19928;-54
2022/05/25 09:39:16;;;;;;;;;;;18.40;76.30;;;;;;5044685;28;19927;-56
2022/05/25 09:41:43;;;;;;;;;;;18.20;78.20;;;;;;5044857;28;19968;-52
2022/05/25 09:44:15;;;;;;;;;;;17.90;76.60;;;;;;5047460;28;20398;-56
2022/05/25 09:46:42;;;;;;;;;;;17.80;80.90;;;;;;5042816;28;20395;-53
2022/05/25 09:49:11;;;;;;;;;;;17.70;81.80;;;;;;5044300;28;19925;-54
2022/05/25 09:51:45;;;;;;;;;;;17.70;80.80;;;;;;5041806;28;19929;-56
2022/05/25 09:54:18;;;;;;;;;;;17.80;82.50;;;;;;5043525;28;20004;-55
2022/05/25 09:56:55;;;;;;;;;;;18.10;83.90;;;;;;5024346;28;20340;-56
2022/05/25 09:59:27;;;;;;;;;;;18.10;74.10;;;;;;5027468;28;19929;-55
2022/05/25 10:01:52;;;;;;;;;;;18.00;74.70;;;;;;5046419;28;19925;-56
2022/05/25 10:04:37;;;;;;;;;;;17.80;74.60;;;;;;5043330;28;19931;-55
2022/05/25 10:07:14;;;;;;;;;;;17.90;79.20;;;;;;5040546;28;20012;-57
2022/05/25 10:09:44;;;;;;;;;;;18.00;76.20;;;;;;5048512;28;20011;-57
2022/05/25 10:12:25;;;;;;;;;;;18.10;77.70;;;;;;5036196;28;19932;-57
2022/05/25 10:14:54;;;;;;;;;;;18.10;73.90;;;;;;5044185;28;19920;-56
2022/05/25 10:17:32;;;;;;;;;;;18.10;74.00;;;;;;5045309;28;19982;-56
2022/05/25 10:19:58;;;;;;;;;;;18.30;78.10;;;;;;5023583;28;20366;-58
2022/05/25 10:22:28;;;;;;;;;;;18.50;78.60;;;;;;5046746;28;20006;-57
2022/05/25 10:25:01;;;;;;;;;;;18.90;79.20;;;;;;5051409;28;20027;-57
2022/05/25 10:27:34;;;;;;;;;;;19.00;75.20;;;;;;5045460;28;19929;-56
2022/05/25 10:39:17;;;;;;;;;;;18.30;75.60;;;;;;5021828;28;20034;-57
2022/05/25 10:41:45;;;;;;;;;;;18.40;73.00;;;;;;5044419;28;19921;-57
2022/05/25 10:44:14;;;;;;;;;;;18.40;71.00;;;;;;5043764;28;19921;-57
2022/05/25 10:46:40;;;;;;;;;;;18.40;75.30;;;;;;5050297;28;19928;-56
2022/05/25 10:49:15;;;;;;;;;;;18.70;69.40;;;;;;5046560;28;19921;-57
2022/05/25 10:51:43;;;;;;;;;;;18.80;66.80;;;;;;5046633;28;20027;-54
2022/05/25 10:57:00;;;;;;;;;;;18.50;70.20;;;;;;5046743;28;19973;-57
2022/05/25 10:59:37;;;;;;;;;;;18.40;71.80;;;;;;5049886;28;20341;-56
2022/05/25 11:02:16;;;;;;;;;;;18.10;74.00;;;;;;5048884;28;19927;-57
2022/05/25 11:05:00;;;;;;;;;;;17.90;70.70;;;;;;5054828;28;19997;-57
2022/05/25 11:07:37;;;;;;;;;;;17.80;71.90;;;;;;5051109;28;19983;-57
2022/05/25 11:10:27;;;;;;;;;;;17.60;71.00;;;;;;5045452;28;19929;-57
2022/05/25 11:13:01;;;;;;;;;;;17.60;72.40;;;;;;5044496;28;20110;-55
2022/05/25 11:15:26;;;;;;;;;;;17.60;72.10;;;;;;5050707;28;19924;-58
2022/05/25 11:17:55;;;;;;;;;;;17.60;74.30;;;;;;5047399;28;19929;-52
2022/05/25 11:20:36;;;;;;;;;;;17.60;70.40;;;;;;5045531;28;19928;-54
2022/05/25 11:23:07;;;;;;;;;;;17.30;71.80;;;;;;5029209;28;19925;-57
2022/05/25 11:25:36;;;;;;;;;;;17.10;74.60;;;;;;5044457;28;19932;-56
2022/05/25 11:28:14;;;;;;;;;;;16.90;78.50;;;;;;5051775;28;19932;-57
2022/05/25 11:30:39;;;;;;;;;;;16.70;80.60;;;;;;5043500;28;20382;-57
2022/05/25 11:33:23;;;;;;;;;;;16.60;85.00;;;;;;5047657;28;20024;-56
2022/05/25 11:35:51;;;;;;;;;;;16.60;84.30;;;;;;5039132;28;19925;-55
2022/05/25 11:38:37;;;;;;;;;;;16.80;74.60;;;;;;5045622;28;21664;-55
2022/05/25 11:41:12;;;;;;;;;;;16.90;73.20;;;;;;5045781;28;20416;-56
2022/05/25 11:43:43;;;;;;;;;;;16.90;72.90;;;;;;5044554;28;20346;-57
2022/05/25 11:46:21;;;;;;;;;;;17.10;74.50;;;;;;5042771;28;20408;-56
2022/05/25 11:49:05;;;;;;;;;;;17.30;77.80;;;;;;5047072;28;19929;-54
2022/05/25 11:51:42;;;;;;;;;;;17.50;76.90;;;;;;5042917;28;19924;-57
2022/05/25 11:54:17;;;;;;;;;;;17.70;78.20;;;;;;5049221;28;19971;-57
2022/05/25 11:56:48;;;;;;;;;;;18.00;78.10;;;;;;5045771;28;19936;-55
2022/05/25 11:59:14;;;;;;;;;;;18.40;74.20;;;;;;5046671;28;20306;-57
2022/05/25 12:01:46;;;;;;;;;;;18.60;72.00;;;;;;5046427;28;19921;-58
2022/05/25 12:04:27;;;;;;;;;;;18.70;66.60;;;;;;5046256;28;19948;-54
2022/05/25 12:06:56;;;;;;;;;;;18.70;65.60;;;;;;5027628;28;19932;-56
2022/05/25 12:09:34;;;;;;;;;;;18.80;67.00;;;;;;5048966;28;19932;-57
2022/05/25 12:12:01;;;;;;;;;;;19.10;69.10;;;;;;5051119;28;20372;-56
2022/05/25 12:14:45;;;;;;;;;;;19.40;66.80;;;;;;5041842;28;20443;-57
2022/05/25 12:17:19;;;;;;;;;;;19.20;65.90;;;;;;5045967;28;19967;-56
2022/05/25 12:19:45;;;;;;;;;;;19.20;67.40;;;;;;5054891;28;20012;-56
2022/05/25 12:22:16;;;;;;;;;;;19.00;61.70;;;;;;5045724;28;20281;-56
2022/05/25 12:24:45;;;;;;;;;;;18.90;64.30;;;;;;5044519;28;19929;-56
2022/05/25 12:27:14;;;;;;;;;;;18.70;57.60;;;;;;5025329;28;20005;-56
2022/05/25 12:29:42;;;;;;;;;;;18.60;58.80;;;;;;5043270;28;20355;-56
2022/05/25 12:32:08;;;;;;;;;;;18.50;56.10;;;;;;5045185;28;20419;-56
2022/05/25 12:34:36;;;;;;;;;;;18.40;57.40;;;;;;5038947;28;19928;-56
2022/05/25 12:37:03;;;;;;;;;;;18.40;58.50;;;;;;5043235;28;19972;-57
2022/05/25 12:39:46;;;;;;;;;;;18.40;61.30;;;;;;5047783;28;19921;-56
2022/05/25 12:42:24;;;;;;;;;;;18.50;62.90;;;;;;5040360;28;20420;-48
2022/05/25 12:50:47;;;;;;;;;;;18.70;58.40;;;;;;5043072;28;19937;-58
2022/05/25 12:53:18;;;;;;;;;;;18.80;54.60;;;;;;5046816;28;19978;-54
2022/05/25 12:55:51;;;;;;;;;;;18.90;54.10;;;;;;5047716;28;19928;-57
2022/05/25 12:58:30;;;;;;;;;;;19.10;53.90;;;;;;5046261;28;19921;-58
2022/05/25 13:01:06;;;;;;;;;;;19.20;53.70;;;;;;5046078;28;19921;-59
2022/05/25 13:03:35;;;;;;;;;;;19.20;55.70;;;;;;5034960;28;19925;-57
2022/05/25 13:06:02;;;;;;;;;;;19.40;53.90;;;;;;5039570;28;19978;-60
2022/05/25 13:08:46;;;;;;;;;;;19.50;53.00;;;;;;5040320;28;19940;-53
2022/05/25 13:11:30;;;;;;;;;;;19.20;52.20;;;;;;5054854;28;19921;-57
2022/05/25 13:14:06;;;;;;;;;;;19.10;52.20;;;;;;5051462;28;19928;-55
2022/05/25 13:16:41;;;;;;;;;;;19.00;53.10;;;;;;5054973;28;19927;-57
2022/05/25 13:19:13;;;;;;;;;;;19.20;53.50;;;;;;5045292;28;19921;-55
2022/05/25 13:21:40;;;;;;;;;;;19.20;53.70;;;;;;5050682;28;20435;-58
2022/05/25 13:24:20;;;;;;;;;;;19.20;52.80;;;;;;5047845;28;19972;-58
2022/05/25 13:27:21;;;;;;;;;;;19.10;54.00;;;;;;5049770;28;19929;-56
2022/05/25 13:29:49;;;;;;;;;;;19.10;56.90;;;;;;4981190;28;20023;-55
2022/05/25 13:32:24;;;;;;;;;;;19.00;55.50;;;;;;5048476;28;19924;-58
2022/05/25 13:34:49;;;;;;;;;;;18.90;53.80;;;;;;5045225;28;19920;-56
2022/05/25 13:37:15;;;;;;;;;;;18.80;54.10;;;;;;5044355;28;19931;-59
2022/05/25 13:39:41;;;;;;;;;;;18.60;53.80;;;;;;5048680;28;20385;-58
2022/05/25 13:42:17;;;;;;;;;;;18.50;54.20;;;;;;5047952;28;19921;-55
2022/05/25 13:44:50;;;;;;;;;;;18.40;54.00;;;;;;5046998;28;19932;-50
2022/05/25 13:47:17;;;;;;;;;;;18.30;54.50;;;;;;5045777;28;20015;-58
2022/05/25 13:49:50;;;;;;;;;;;18.10;54.10;;;;;;5050483;28;19924;-53
2022/05/25 13:52:15;;;;;;;;;;;18.00;55.40;;;;;;5044452;28;19993;-50
2022/05/25 13:54:42;;;;;;;;;;;17.90;55.30;;;;;;5049027;28;20015;-59
2022/05/25 13:57:22;;;;;;;;;;;17.80;56.50;;;;;;5048626;28;20006;-58
2022/05/25 13:59:48;;;;;;;;;;;17.90;56.70;;;;;;5049182;28;19928;-58
2022/05/25 14:02:31;;;;;;;;;;;17.90;57.00;;;;;;5030174;28;20869;-55
2022/05/25 14:05:01;;;;;;;;;;;17.90;56.10;;;;;;5048317;28;20365;-54
2022/05/25 14:07:37;;;;;;;;;;;17.90;58.00;;;;;;5043890;28;20005;-59
2022/05/25 14:12:49;;;;;;;;;;;18.00;55.70;;;;;;5045868;28;20377;-58
2022/05/25 14:15:19;;;;;;;;;;;18.10;57.60;;;;;;5046900;28;20008;-58
2022/05/25 14:17:55;;;;;;;;;;;18.30;58.30;;;;;;5039481;28;19925;-58
2022/05/25 14:20:22;;;;;;;;;;;18.40;58.00;;;;;;5044927;28;20352;-57
2022/05/25 14:22:49;;;;;;;;;;;18.40;55.90;;;;;;5019690;28;19925;-55
2022/05/25 14:25:18;;;;;;;;;;;18.40;57.40;;;;;;5041030;28;19927;-58
2022/05/25 14:27:45;;;;;;;;;;;18.30;57.10;;;;;;5041820;28;20944;-47
2022/05/25 14:30:11;;;;;;;;;;;18.30;57.50;;;;;;5045431;28;19928;-57
2022/05/25 14:32:36;;;;;;;;;;;18.30;59.60;;;;;;5046977;28;20285;-58
2022/05/25 14:35:10;;;;;;;;;;;18.30;58.40;;;;;;5049983;28;20012;-58
2022/05/25 14:37:38;;;;;;;;;;;18.30;58.60;;;;;;5041571;28;19925;-56
2022/05/25 14:40:07;;;;;;;;;;;18.30;57.90;;;;;;5052937;28;19929;-55
2022/05/25 14:42:33;;;;;;;;;;;18.20;58.90;;;;;;5054787;28;19936;-58
2022/05/25 14:45:04;;;;;;;;;;;18.20;59.60;;;;;;5050833;28;19925;-53
2022/05/25 14:47:36;;;;;;;;;;;18.20;57.30;;;;;;5050834;28;20015;-57
2022/05/25 14:50:10;;;;;;;;;;;18.10;58.40;;;;;;5047702;28;20011;-54
2022/05/25 14:52:42;;;;;;;;;;;18.10;58.60;;;;;;5054213;28;20356;-58
2022/05/25 14:55:19;;;;;;;;;;;18.10;60.10;;;;;;5055076;28;19921;-58
2022/05/25 14:57:45;;;;;;;;;;;18.00;60.00;;;;;;5049877;28;19933;-57
2022/05/25 15:00:13;;;;;;;;;;;18.10;61.30;;;;;;5043406;28;20235;-57
2022/05/25 15:02:40;;;;;;;;;;;18.00;62.80;;;;;;5054834;28;19931;-56
2022/05/25 15:05:24;;;;;;;;;;;18.00;61.90;;;;;;5051891;28;19956;-58
2022/05/25 15:07:54;;;;;;;;;;;17.90;62.60;;;;;;5049643;28;20864;-56
2022/05/25 15:10:19;;;;;;;;;;;17.70;64.70;;;;;;5030005;28;19928;-57
2022/05/25 15:12:46;;;;;;;;;;;17.70;65.80;;;;;;5046472;28;19944;-57